createdAt,value
2023-04-13T00:01:12.265Z,8.00
2023-04-13T00:03:47.493Z,7.90
2023-04-13T00:06:16.565Z,7.90
2023-04-13T00:08:45.683Z,7.90
2023-04-13T00:11:18.603Z,7.90
2023-04-13T00:13:47.884Z,7.90
2023-04-13T00:16:21.683Z,7.80
2023-04-13T00:18:52.379Z,7.80
2023-04-13T00:21:21.591Z,7.80
2023-04-13T00:23:50.992Z,7.80
2023-04-13T00:26:21.881Z,7.80
2023-04-13T00:28:52.201Z,7.80
2023-04-13T00:31:26.121Z,7.80
2023-04-13T00:33:56.321Z,7.80
2023-04-13T00:36:27.888Z,7.80
2023-04-13T00:39:02.126Z,7.80
2023-04-13T00:41:30.825Z,7.80
2023-04-13T00:44:00.943Z,7.70
2023-04-13T00:46:32.487Z,7.70
2023-04-13T00:49:02.143Z,7.80
2023-04-13T00:51:33.144Z,7.80
2023-04-13T00:54:05.001Z,7.80
2023-04-13T00:56:34.635Z,7.80
2023-04-13T00:59:03.753Z,7.80
2023-04-13T01:01:34.622Z,7.80
2023-04-13T01:04:03.356Z,7.70
2023-04-13T01:06:42.653Z,7.70
2023-04-13T01:09:23.774Z,7.70
2023-04-13T01:12:01.220Z,7.60
2023-04-13T01:14:38.089Z,7.60
2023-04-13T01:17:21.975Z,7.60
2023-04-13T01:19:59.793Z,7.60
2023-04-13T01:22:33.177Z,7.70
2023-04-13T01:25:26.388Z,7.70
2023-04-13T01:28:08.984Z,7.70
2023-04-13T01:30:42.401Z,7.70
2023-04-13T01:33:19.277Z,7.70
2023-04-13T01:35:48.813Z,7.60
2023-04-13T01:38:25.455Z,7.70
2023-04-13T01:40:57.491Z,7.70
2023-04-13T01:43:30.409Z,7.70
2023-04-13T01:46:11.830Z,7.70
2023-04-13T01:49:04.538Z,7.70
2023-04-13T01:51:54.792Z,7.60
2023-04-13T01:54:31.825Z,7.50
2023-04-13T01:57:03.396Z,7.50
2023-04-13T01:59:35.635Z,7.50
2023-04-13T02:02:07.241Z,7.40
2023-04-13T02:04:39.067Z,7.40
2023-04-13T02:07:10.641Z,7.40
2023-04-13T02:09:43.425Z,7.40
2023-04-13T02:12:12.784Z,7.30
2023-04-13T02:14:44.931Z,7.30
2023-04-13T02:17:14.263Z,7.30
2023-04-13T02:19:48.101Z,7.20
2023-04-13T02:22:23.413Z,7.20
2023-04-13T02:24:54.112Z,7.10
2023-04-13T02:27:24.292Z,7.20
2023-04-13T02:29:55.990Z,7.20
2023-04-13T02:32:24.883Z,7.30
2023-04-13T02:34:55.199Z,7.40
2023-04-13T02:37:25.350Z,7.30
2023-04-13T02:39:57.387Z,7.30
2023-04-13T02:42:30.528Z,7.30
2023-04-13T02:45:01.390Z,7.30
2023-04-13T02:47:30.528Z,7.30
2023-04-13T02:50:02.073Z,7.30
2023-04-13T02:52:41.700Z,7.40
2023-04-13T02:55:12.090Z,7.50
2023-04-13T02:58:04.548Z,7.50
2023-04-13T03:00:35.117Z,7.50
2023-04-13T03:03:11.467Z,7.60
2023-04-13T03:05:46.301Z,7.60
2023-04-13T03:08:19.619Z,7.60
2023-04-13T03:11:04.310Z,7.60
2023-04-13T03:13:40.929Z,7.50
2023-04-13T03:16:13.523Z,7.50
2023-04-13T03:18:47.909Z,7.40
2023-04-13T03:21:17.635Z,7.30
2023-04-13T03:24:00.406Z,7.30
2023-04-13T03:26:32.616Z,7.20
2023-04-13T03:29:06.115Z,7.10
2023-04-13T03:31:44.262Z,7.10
2023-04-13T03:34:17.054Z,7.00
2023-04-13T03:36:55.511Z,7.00
2023-04-13T03:39:32.029Z,7.00
2023-04-13T03:42:03.577Z,7.10
2023-04-13T03:44:33.855Z,7.10
2023-04-13T03:47:09.919Z,7.10
2023-04-13T03:49:40.359Z,7.10
2023-04-13T03:52:14.257Z,7.10
2023-04-13T03:54:50.062Z,7.10
2023-04-13T03:57:19.297Z,7.10
2023-04-13T03:59:52.029Z,7.00
2023-04-13T04:02:31.560Z,7.00
2023-04-13T04:05:00.901Z,7.00
2023-04-13T04:07:31.754Z,7.00
2023-04-13T04:10:03.245Z,7.00
2023-04-13T04:12:32.849Z,7.10
2023-04-13T04:15:01.654Z,7.20
2023-04-13T04:17:36.079Z,7.20
2023-04-13T04:20:13.457Z,7.30
2023-04-13T04:22:45.192Z,7.30
2023-04-13T04:25:22.094Z,7.30
2023-04-13T04:27:57.914Z,7.30
2023-04-13T04:30:41.217Z,7.30
2023-04-13T04:33:12.572Z,7.30
2023-04-13T04:35:43.945Z,7.30
2023-04-13T04:38:14.890Z,7.30
2023-04-13T04:40:52.558Z,7.30
2023-04-13T04:43:29.984Z,7.30
2023-04-13T04:46:09.228Z,7.30
2023-04-13T04:48:47.614Z,7.40
2023-04-13T04:51:17.532Z,7.40
2023-04-13T04:53:45.979Z,7.40
2023-04-13T04:56:16.071Z,7.50
2023-04-13T04:58:53.733Z,7.50
2023-04-13T05:01:27.946Z,7.50
2023-04-13T05:04:08.522Z,7.50
2023-04-13T05:06:42.129Z,7.50
2023-04-13T05:09:17.868Z,7.50
2023-04-13T05:11:54.896Z,7.50
2023-04-13T05:14:25.251Z,7.60
2023-04-13T05:17:01.771Z,7.60
2023-04-13T05:19:40.070Z,7.60
2023-04-13T05:22:22.078Z,7.60
2023-04-13T05:25:00.388Z,7.60
2023-04-13T05:27:33.118Z,7.60
2023-04-13T05:30:04.678Z,7.70
2023-04-13T05:32:36.320Z,7.70
2023-04-13T05:35:08.196Z,7.80
2023-04-13T05:37:40.896Z,7.80
2023-04-13T05:40:17.373Z,7.80
2023-04-13T05:45:57.471Z,7.90
2023-04-13T05:48:26.665Z,7.90
2023-04-13T05:51:00.914Z,7.90
2023-04-13T05:53:33.666Z,7.90
2023-04-13T05:56:05.820Z,8.00
2023-04-13T05:58:38.069Z,8.00
2023-04-13T06:01:39.956Z,8.00
2023-04-13T06:04:11.985Z,8.00
2023-04-13T06:06:42.251Z,8.00
2023-04-13T06:09:13.697Z,8.00
2023-04-13T06:11:46.416Z,7.90
2023-04-13T06:14:15.571Z,7.90
2023-04-13T06:16:45.906Z,7.90
2023-04-13T06:19:16.829Z,7.90
2023-04-13T06:21:49.861Z,7.90
2023-04-13T06:24:18.402Z,7.90
2023-04-13T06:26:50.865Z,8.00
2023-04-13T06:29:23.637Z,8.00
2023-04-13T06:32:02.763Z,8.00
2023-04-13T06:34:35.390Z,8.00
2023-04-13T06:37:07.603Z,8.00
2023-04-13T06:39:46.909Z,8.00
2023-04-13T06:42:16.452Z,8.10
2023-04-13T06:45:08.619Z,8.10
2023-04-13T06:47:42.507Z,8.20
2023-04-13T06:50:15.994Z,8.30
2023-04-13T06:52:49.847Z,8.40
2023-04-13T06:55:19.381Z,8.40
2023-04-13T06:57:54.110Z,8.30
2023-04-13T07:00:29.965Z,8.40
2023-04-13T07:03:02.127Z,8.50
2023-04-13T07:05:32.035Z,8.50
2023-04-13T07:08:11.010Z,8.80
2023-04-13T07:10:42.994Z,9.00
2023-04-13T07:13:20.787Z,9.10
2023-04-13T07:15:53.511Z,9.20
2023-04-13T07:18:22.381Z,9.20
2023-04-13T07:20:53.181Z,9.10
2023-04-13T07:23:29.303Z,8.90
2023-04-13T07:25:59.875Z,8.90
2023-04-13T07:28:33.072Z,8.90
2023-04-13T07:31:03.505Z,9.00
2023-04-13T07:33:36.493Z,9.10
2023-04-13T07:36:07.846Z,9.00
2023-04-13T07:38:41.037Z,8.90
2023-04-13T07:41:10.905Z,9.00
2023-04-13T07:43:40.095Z,8.90
2023-04-13T07:46:13.891Z,8.90
2023-04-13T07:48:46.656Z,9.00
2023-04-13T07:51:30.146Z,9.10
2023-04-13T07:54:00.999Z,9.50
2023-04-13T07:56:31.784Z,9.60
2023-04-13T07:59:03.293Z,10.00
2023-04-13T08:01:46.453Z,10.30
2023-04-13T08:04:15.945Z,10.60
2023-04-13T08:06:49.710Z,10.50
2023-04-13T08:09:20.684Z,10.50
2023-04-13T08:11:50.096Z,10.20
2023-04-13T08:14:21.740Z,10.00
2023-04-13T08:16:51.459Z,10.10
2023-04-13T08:19:23.019Z,10.10
2023-04-13T08:21:58.434Z,10.10
2023-04-13T08:24:31.018Z,10.10
2023-04-13T08:27:03.143Z,10.00
2023-04-13T08:29:42.979Z,10.10
2023-04-13T08:32:11.608Z,9.90
2023-04-13T08:34:46.642Z,10.00
2023-04-13T08:37:23.071Z,9.80
2023-04-13T08:39:59.734Z,9.60
2023-04-13T08:42:29.525Z,9.60
2023-04-13T08:45:00.543Z,9.60
2023-04-13T08:47:30.806Z,9.60
2023-04-13T08:50:02.317Z,9.50
2023-04-13T08:52:55.660Z,9.50
2023-04-13T08:55:48.440Z,9.50
2023-04-13T08:58:21.366Z,9.50
2023-04-13T09:00:52.496Z,9.50
2023-04-13T09:03:27.833Z,9.60
2023-04-13T09:06:01.694Z,9.80
2023-04-13T09:08:34.944Z,9.80
2023-04-13T09:11:09.483Z,9.70
2023-04-13T09:13:38.385Z,9.80
2023-04-13T09:16:12.815Z,9.70
2023-04-13T09:18:55.605Z,9.80
2023-04-13T09:21:29.114Z,9.90
2023-04-13T09:24:20.997Z,9.90
2023-04-13T09:26:53.206Z,10.00
2023-04-13T09:29:24.442Z,9.80
2023-04-13T09:31:54.116Z,9.90
2023-04-13T09:34:29.967Z,10.10
2023-04-13T09:37:01.626Z,10.20
2023-04-13T09:39:30.989Z,10.40
2023-04-13T09:42:12.321Z,10.40
2023-04-13T09:44:44.269Z,10.40
2023-04-13T09:47:13.200Z,10.40
2023-04-13T09:49:44.861Z,10.30
2023-04-13T09:52:34.075Z,10.20
2023-04-13T09:57:57.138Z,9.90
2023-04-13T10:00:27.703Z,10.00
2023-04-13T10:03:02.322Z,9.90
2023-04-13T10:05:39.177Z,10.10
2023-04-13T10:08:12.262Z,10.10
2023-04-13T10:10:40.641Z,10.20
2023-04-13T10:13:21.983Z,10.30
2023-04-13T10:16:17.067Z,10.40
2023-04-13T10:19:00.798Z,10.50
2023-04-13T10:21:33.724Z,10.70
2023-04-13T10:24:11.362Z,10.70
2023-04-13T10:26:41.341Z,10.70
2023-04-13T10:29:14.059Z,10.70
2023-04-13T10:31:47.203Z,10.80
2023-04-13T10:34:26.525Z,10.80
2023-04-13T10:36:58.176Z,10.90
2023-04-13T10:39:28.666Z,10.90
2023-04-13T10:42:03.004Z,11.00
2023-04-13T10:44:45.183Z,11.10
2023-04-13T10:47:15.353Z,11.10
2023-04-13T10:49:49.563Z,11.10
2023-04-13T10:52:28.397Z,11.20
2023-04-13T10:54:59.506Z,11.20
2023-04-13T10:57:38.333Z,11.20
2023-04-13T11:00:25.445Z,11.20
2023-04-13T11:03:02.483Z,11.20
2023-04-13T11:05:32.201Z,11.20
2023-04-13T11:08:01.313Z,11.10
2023-04-13T11:10:32.172Z,11.10
2023-04-13T11:13:02.237Z,11.10
2023-04-13T11:15:34.181Z,11.10
2023-04-13T11:18:04.399Z,11.10
2023-04-13T11:20:34.343Z,11.00
2023-04-13T11:23:12.724Z,11.00
2023-04-13T11:25:54.838Z,10.90
2023-04-13T11:28:25.444Z,10.90
2023-04-13T11:31:01.738Z,10.80
2023-04-13T11:33:34.356Z,10.80
2023-04-13T11:36:05.867Z,10.80
2023-04-13T11:38:36.225Z,10.80
2023-04-13T11:41:16.334Z,10.90
2023-04-13T11:43:48.521Z,10.90
2023-04-13T11:46:25.918Z,10.90
2023-04-13T11:48:58.596Z,10.80
2023-04-13T11:51:27.984Z,10.70
2023-04-13T11:53:56.657Z,10.70
2023-04-13T11:56:26.706Z,10.60
2023-04-13T11:58:55.924Z,10.70
2023-04-13T12:01:34.243Z,10.80
2023-04-13T12:04:19.102Z,11.00
2023-04-13T12:06:51.193Z,11.20
2023-04-13T12:09:22.449Z,11.50
2023-04-13T12:12:29.910Z,11.70
2023-04-13T12:15:12.344Z,12.10
2023-04-13T12:17:58.250Z,12.60
2023-04-13T12:20:37.706Z,13.20
2023-04-13T12:23:22.358Z,14.10
2023-04-13T12:25:57.430Z,15.00
2023-04-13T12:28:34.952Z,15.00
2023-04-13T12:31:05.968Z,14.40
2023-04-13T12:33:40.462Z,14.20
2023-04-13T12:36:13.958Z,14.00
2023-04-13T12:38:44.428Z,13.80
2023-04-13T12:41:13.286Z,13.50
2023-04-13T12:43:41.809Z,13.30
2023-04-13T12:46:10.617Z,13.30
2023-04-13T12:48:41.937Z,13.00
2023-04-13T12:51:11.175Z,12.90
2023-04-13T12:53:40.147Z,13.30
2023-04-13T12:56:10.711Z,13.10
2023-04-13T12:58:41.690Z,13.00
2023-04-13T13:01:14.559Z,13.20
2023-04-13T13:03:46.431Z,13.20
2023-04-13T13:06:16.617Z,12.80
2023-04-13T13:08:45.664Z,12.50
2023-04-13T13:11:14.498Z,12.40
2023-04-13T13:13:43.015Z,12.60
2023-04-13T13:16:11.998Z,12.80
2023-04-13T13:18:50.429Z,12.70
2023-04-13T13:21:23.159Z,12.60
2023-04-13T13:23:52.238Z,12.60
2023-04-13T13:26:24.983Z,12.40
2023-04-13T13:28:54.680Z,12.50
2023-04-13T13:31:24.894Z,12.50
2023-04-13T13:33:54.602Z,12.40
2023-04-13T13:36:26.110Z,12.30
2023-04-13T13:38:55.752Z,12.30
2023-04-13T13:41:27.281Z,12.30
2023-04-13T13:43:56.213Z,12.50
2023-04-13T13:46:24.958Z,12.50
2023-04-13T13:48:56.306Z,12.70
2023-04-13T13:52:04.361Z,12.90
2023-04-13T13:54:40.474Z,13.30
2023-04-13T13:57:11.730Z,13.40
2023-04-13T13:59:40.719Z,13.60
2023-04-13T14:02:09.609Z,13.80
2023-04-13T14:04:38.265Z,13.90
2023-04-13T14:07:09.767Z,13.90
2023-04-13T14:09:38.847Z,13.90
2023-04-13T14:12:12.390Z,13.70
2023-04-13T14:14:41.367Z,13.60
2023-04-13T14:17:11.967Z,13.40
2023-04-13T14:19:44.029Z,13.30
2023-04-13T14:22:15.228Z,13.00
2023-04-13T14:24:46.444Z,12.80
2023-04-13T14:27:18.936Z,12.60
2023-04-13T14:29:47.684Z,12.40
2023-04-13T14:32:16.748Z,12.20
2023-04-13T14:34:46.228Z,12.30
2023-04-13T14:37:19.717Z,12.30
2023-04-13T14:39:48.726Z,12.40
2023-04-13T14:42:20.212Z,12.50
2023-04-13T14:44:51.944Z,12.40
2023-04-13T14:47:24.939Z,12.40
2023-04-13T14:49:53.778Z,12.60
2023-04-13T14:52:27.411Z,12.70
2023-04-13T14:54:57.093Z,12.80
2023-04-13T14:57:25.957Z,12.60
2023-04-13T14:59:57.429Z,12.70
2023-04-13T15:02:26.687Z,12.70
2023-04-13T15:05:00.730Z,12.40
2023-04-13T15:07:31.869Z,12.30
2023-04-13T15:10:08.885Z,12.20
2023-04-13T15:12:38.265Z,12.20
2023-04-13T15:15:14.387Z,12.20
2023-04-13T15:17:43.857Z,12.00
2023-04-13T15:20:13.656Z,11.90
2023-04-13T15:22:44.132Z,11.80
2023-04-13T15:25:16.676Z,11.60
2023-04-13T15:27:45.659Z,11.50
2023-04-13T15:30:16.981Z,11.40
2023-04-13T15:32:48.525Z,11.20
2023-04-13T15:35:17.156Z,11.10
2023-04-13T15:37:50.455Z,11.00
2023-04-13T15:40:22.080Z,11.00
2023-04-13T15:42:54.941Z,10.90
2023-04-13T15:45:26.282Z,10.90
2023-04-13T15:47:58.911Z,10.80
2023-04-13T15:50:38.324Z,10.90
2023-04-13T15:53:11.867Z,10.80
2023-04-13T15:55:43.260Z,10.80
2023-04-13T15:58:14.992Z,10.80
2023-04-13T16:00:44.627Z,10.80
2023-04-13T16:03:15.036Z,10.90
2023-04-13T16:05:43.654Z,10.80
2023-04-13T16:08:14.019Z,10.70
2023-04-13T16:17:18.753Z,10.40
2023-04-13T16:19:48.415Z,10.10
2023-04-13T16:22:18.848Z,9.80
2023-04-13T16:24:49.730Z,9.70
2023-04-13T16:27:18.110Z,9.60
2023-04-13T16:29:46.658Z,9.40
2023-04-13T16:32:15.572Z,9.30
2023-04-13T16:34:45.063Z,9.20
2023-04-13T16:37:15.214Z,9.20
2023-04-13T16:39:46.892Z,9.30
2023-04-13T16:42:17.947Z,9.30
2023-04-13T16:44:46.764Z,9.30
2023-04-13T16:47:15.090Z,9.30
2023-04-13T16:49:43.668Z,9.30
2023-04-13T16:52:12.840Z,9.20
2023-04-13T16:54:44.501Z,9.20
2023-04-13T16:57:17.358Z,9.10
2023-04-13T16:59:46.437Z,9.00
2023-04-13T17:02:28.306Z,8.90
2023-04-13T17:05:01.182Z,8.80
2023-04-13T17:07:35.801Z,8.60
2023-04-13T17:10:09.395Z,8.60
2023-04-13T17:12:39.356Z,8.60
2023-04-13T17:15:10.576Z,8.60
2023-04-13T17:17:39.086Z,8.40
2023-04-13T17:20:09.535Z,8.40
2023-04-13T17:22:40.904Z,8.30
2023-04-13T17:25:12.377Z,8.20
2023-04-13T17:27:42.606Z,8.00
2023-04-13T17:30:14.620Z,8.10
2023-04-13T17:32:43.582Z,8.10
2023-04-13T17:35:12.137Z,8.10
2023-04-13T17:37:40.612Z,8.10
2023-04-13T17:40:10.884Z,8.10
2023-04-13T17:42:39.472Z,8.10
2023-04-13T17:45:11.346Z,8.10
2023-04-13T17:47:41.422Z,8.10
2023-04-13T17:50:13.133Z,8.20
2023-04-13T17:52:43.606Z,8.00
2023-04-13T17:55:12.256Z,8.00
2023-04-13T17:57:41.704Z,8.00
2023-04-13T18:00:15.241Z,8.00
2023-04-13T18:02:44.004Z,7.90
2023-04-13T18:05:16.363Z,7.80
2023-04-13T18:07:45.994Z,7.80
2023-04-13T18:10:15.637Z,7.90
2023-04-13T18:12:44.293Z,8.00
2023-04-13T18:15:15.048Z,8.00
2023-04-13T18:17:44.854Z,7.90
2023-04-13T18:20:13.901Z,7.80
2023-04-13T18:22:43.423Z,7.70
2023-04-13T18:25:17.973Z,7.60
2023-04-13T18:27:46.720Z,7.50
2023-04-13T18:30:22.284Z,7.40
2023-04-13T18:32:54.988Z,7.30
2023-04-13T18:35:23.388Z,7.20
2023-04-13T18:37:55.131Z,7.20
2023-04-13T18:40:24.016Z,7.10
2023-04-13T18:42:53.024Z,7.00
2023-04-13T18:45:23.559Z,7.00
2023-04-13T18:47:51.946Z,7.00
2023-04-13T18:50:20.847Z,6.90
2023-04-13T18:52:49.293Z,7.00
2023-04-13T18:55:18.499Z,6.90
2023-04-13T18:57:48.179Z,6.90
2023-04-13T19:00:20.302Z,6.90
2023-04-13T19:02:52.580Z,7.00
2023-04-13T19:05:21.793Z,7.00
2023-04-13T19:08:01.201Z,7.00
2023-04-13T19:10:32.611Z,7.00
2023-04-13T19:13:02.430Z,7.00
2023-04-13T19:15:35.397Z,7.00
2023-04-13T19:18:07.762Z,7.00
2023-04-13T19:20:36.370Z,7.00
2023-04-13T19:23:06.603Z,7.00
2023-04-13T19:25:35.281Z,6.90
2023-04-13T19:28:07.139Z,6.90
2023-04-13T19:30:39.563Z,6.90
2023-04-13T19:33:10.088Z,6.90
2023-04-13T19:35:39.285Z,6.90
2023-04-13T19:38:08.544Z,6.80
2023-04-13T19:40:36.943Z,6.80
2023-04-13T19:43:05.618Z,6.80
2023-04-13T19:45:36.797Z,6.90
2023-04-13T19:48:05.324Z,6.90
2023-04-13T19:50:37.025Z,6.90
2023-04-13T19:53:06.546Z,6.90
2023-04-13T19:55:36.998Z,6.90
2023-04-13T19:58:06.201Z,6.90
2023-04-13T20:00:34.981Z,6.90
2023-04-13T20:03:04.241Z,6.90
2023-04-13T20:05:40.848Z,6.90
2023-04-13T20:08:10.342Z,6.90
2023-04-13T20:10:42.549Z,6.90
2023-04-13T20:13:13.130Z,6.90
2023-04-13T20:15:42.248Z,6.90
2023-04-13T20:18:11.809Z,6.90
2023-04-13T20:20:42.562Z,6.90
2023-04-13T20:23:11.640Z,6.90
2023-04-13T20:25:40.981Z,6.90
2023-04-13T20:28:10.396Z,6.90
2023-04-13T20:30:40.250Z,6.90
2023-04-13T20:33:11.261Z,6.90
2023-04-13T20:35:43.866Z,6.90
2023-04-13T20:38:14.331Z,6.90
2023-04-13T20:40:46.016Z,6.90
2023-04-13T20:43:17.002Z,6.90
2023-04-13T20:45:46.235Z,6.90
2023-04-13T20:50:49.542Z,6.90
2023-04-13T20:53:20.201Z,6.80
2023-04-13T20:55:49.359Z,6.80
2023-04-13T20:58:18.430Z,6.80
2023-04-13T21:00:49.559Z,6.80
2023-04-13T21:03:19.730Z,6.80
2023-04-13T21:05:55.819Z,6.80
2023-04-13T21:08:25.942Z,6.70
2023-04-13T21:10:57.873Z,6.70
2023-04-13T21:13:29.867Z,6.60
2023-04-13T21:16:00.504Z,6.60
2023-04-13T21:18:31.371Z,6.50
2023-04-13T21:21:03.932Z,6.50
2023-04-13T21:23:32.755Z,6.40
2023-04-13T21:26:01.813Z,6.30
2023-04-13T21:28:38.338Z,6.30
2023-04-13T21:31:08.496Z,6.20
2023-04-13T21:33:38.117Z,6.20
2023-04-13T21:38:45.649Z,6.20
2023-04-13T21:41:17.930Z,6.10
2023-04-13T21:43:47.037Z,6.10
2023-04-13T21:46:17.255Z,6.10
2023-04-13T21:48:46.006Z,6.00
2023-04-13T21:51:17.340Z,6.10
2023-04-13T21:53:48.830Z,6.10
2023-04-13T21:56:31.879Z,6.10
2023-04-13T21:59:03.942Z,6.10
2023-04-13T22:01:34.622Z,6.10
2023-04-13T22:04:04.193Z,6.10
2023-04-13T22:06:34.610Z,6.10
2023-04-13T22:09:05.797Z,6.10
2023-04-13T22:11:40.909Z,6.00
2023-04-13T22:14:12.106Z,5.90
2023-04-13T22:16:47.701Z,5.90
2023-04-13T22:19:20.775Z,5.80
2023-04-13T22:21:52.185Z,5.80
2023-04-13T22:24:20.676Z,5.80
2023-04-13T22:26:50.463Z,5.80
2023-04-13T22:29:20.519Z,5.80
2023-04-13T22:31:51.010Z,5.80
2023-04-13T22:34:20.289Z,5.80
2023-04-13T22:37:17.544Z,5.70
2023-04-13T22:39:47.138Z,5.70
2023-04-13T22:45:01.186Z,5.60
2023-04-13T22:47:30.165Z,5.60
2023-04-13T22:50:01.121Z,5.60
2023-04-13T22:52:34.587Z,5.50
2023-04-13T22:55:08.075Z,5.50
2023-04-13T22:57:42.884Z,5.40
2023-04-13T23:00:15.572Z,5.40
2023-04-13T23:02:50.021Z,5.30
2023-04-13T23:05:23.198Z,5.30
2023-04-13T23:07:54.654Z,5.20
2023-04-13T23:10:25.110Z,5.20
2023-04-13T23:13:11.289Z,5.10
2023-04-13T23:15:41.200Z,5.10
2023-04-13T23:18:11.779Z,5.00
2023-04-13T23:20:43.439Z,5.00
2023-04-13T23:23:17.279Z,4.90
2023-04-13T23:25:52.741Z,4.90
2023-04-13T23:28:27.384Z,4.90
2023-04-13T23:31:05.774Z,4.80
2023-04-13T23:36:21.678Z,4.80
2023-04-13T23:38:52.736Z,4.70
2023-04-13T23:41:22.023Z,4.70
2023-04-13T23:43:51.791Z,4.60
2023-04-13T23:46:23.049Z,4.60
2023-04-13T23:51:35.405Z,4.60
2023-04-13T23:56:51.145Z,4.50
2023-04-13T23:59:33.964Z,4.50
